Time;durP1;ratioP1;P1;durP2;ratioP2;P2;SDS_P1;SDS_P2;PMS_P1;PMS_P2;Temp;Humidity;BMP_temperature;BMP_pressure;BME280_temperature;BME280_humidity;BME280_pressure;Samples;Min_cycle;Max_cycle;Signal;HPM_P1;HPM_P2
2022/12/05 00:01:39;;;;;;;151.95;45.60;;;;;;;;;;5018610;28;20471;-67
2022/12/05 00:04:06;;;;;;;131.40;43.58;;;;;;;;;;5013574;28;20089;-67
2022/12/05 00:06:32;;;;;;;145.38;43.03;;;;;;;;;;5024626;28;20670;-67
2022/12/05 00:08:57;;;;;;;143.23;43.97;;;;;;;;;;5018721;28;20022;-66
2022/12/05 00:11:24;;;;;;;123.95;43.65;;;;;;;;;;5019859;28;20099;-67
2022/12/05 00:13:50;;;;;;;137.73;43.20;;;;;;;;;;5017259;28;20033;-63
2022/12/05 00:16:17;;;;;;;122.88;39.15;;;;;;;;;;5011866;28;20044;-69
2022/12/05 00:18:43;;;;;;;120.03;37.70;;;;;;;;;;5011238;28;20021;-65
2022/12/05 00:21:19;;;;;;;116.15;38.05;;;;;;;;;;5011582;28;20026;-68
2022/12/05 00:23:45;;;;;;;115.22;37.72;;;;;;;;;;5022029;28;20029;-66
2022/12/05 00:26:11;;;;;;;125.78;36.65;;;;;;;;;;5017601;28;20105;-66
2022/12/05 00:28:36;;;;;;;110.60;37.25;;;;;;;;;;5016075;28;20095;-70
2022/12/05 00:31:06;;;;;;;116.57;38.38;;;;;;;;;;5020341;28;20108;-68
2022/12/05 00:33:31;;;;;;;101.75;36.28;;;;;;;;;;5021968;28;20029;-63
2022/12/05 00:36:07;;;;;;;115.72;39.83;;;;;;;;;;5013552;28;20030;-69
2022/12/05 00:38:32;;;;;;;101.47;35.95;;;;;;;;;;5011411;28;20484;-63
2022/12/05 00:41:04;;;;;;;102.10;36.05;;;;;;;;;;5009528;28;20113;-68
2022/12/05 00:43:30;;;;;;;103.03;36.33;;;;;;;;;;5019019;28;20013;-64
2022/12/05 00:45:55;;;;;;;96.00;35.47;;;;;;;;;;5020640;28;20018;-64
2022/12/05 00:48:20;;;;;;;100.53;36.17;;;;;;;;;;5017226;28;20483;-66
2022/12/05 00:50:45;;;;;;;117.47;35.67;;;;;;;;;;5009803;28;20708;-68
2022/12/05 00:53:10;;;;;;;106.00;37.63;;;;;;;;;;5011253;28;20041;-67
2022/12/05 00:55:36;;;;;;;108.78;36.03;;;;;;;;;;5006260;28;20041;-67
2022/12/05 00:58:01;;;;;;;120.18;40.20;;;;;;;;;;5020697;28;20044;-69
2022/12/05 01:00:27;;;;;;;106.63;38.63;;;;;;;;;;5014146;28;20022;-69
2022/12/05 01:02:52;;;;;;;114.60;38.67;;;;;;;;;;5017587;28;20109;-65
2022/12/05 01:05:17;;;;;;;127.28;37.10;;;;;;;;;;5012968;28;20026;-68
2022/12/05 01:07:42;;;;;;;113.72;38.13;;;;;;;;;;5017306;28;20411;-68
2022/12/05 01:10:08;;;;;;;108.70;35.65;;;;;;;;;;5014004;28;20361;-67
2022/12/05 01:12:33;;;;;;;114.63;37.50;;;;;;;;;;5011221;28;20506;-67
2022/12/05 01:14:58;;;;;;;112.60;38.13;;;;;;;;;;5010675;28;20037;-69
2022/12/05 01:17:23;;;;;;;101.65;36.17;;;;;;;;;;5011198;28;20018;-66
2022/12/05 01:19:49;;;;;;;103.95;38.17;;;;;;;;;;5010772;28;20106;-69
2022/12/05 01:22:14;;;;;;;103.35;35.80;;;;;;;;;;5010792;28;20018;-68
2022/12/05 01:24:40;;;;;;;108.43;37.38;;;;;;;;;;5010455;28;20102;-69
2022/12/05 01:27:05;;;;;;;117.80;37.90;;;;;;;;;;5010076;28;20022;-68
2022/12/05 01:29:30;;;;;;;127.68;39.28;;;;;;;;;;5016387;28;20319;-64
2022/12/05 01:31:55;;;;;;;117.97;39.28;;;;;;;;;;5018529;28;20602;-67
2022/12/05 01:34:21;;;;;;;95.57;36.28;;;;;;;;;;5010526;28;20021;-65
2022/12/05 01:36:46;;;;;;;114.25;37.55;;;;;;;;;;5009500;28;20018;-67
2022/12/05 01:39:12;;;;;;;104.20;37.05;;;;;;;;;;5010996;28;20645;-71
2022/12/05 01:41:39;;;;;;;111.47;36.53;;;;;;;;;;5012074;28;20022;-66
2022/12/05 01:44:24;;;;;;;113.75;37.55;;;;;;;;;;5010165;28;20391;-68
2022/12/05 01:46:50;;;;;;;119.82;38.15;;;;;;;;;;5018555;28;20101;-68
2022/12/05 01:49:27;;;;;;;109.90;35.97;;;;;;;;;;5011167;28;20030;-64
2022/12/05 01:51:54;;;;;;;106.93;35.47;;;;;;;;;;5009674;28;20029;-68
2022/12/05 01:54:21;;;;;;;118.40;36.40;;;;;;;;;;5005473;28;20033;-67
2022/12/05 01:56:52;;;;;;;105.05;34.50;;;;;;;;;;5009299;28;20014;-65
2022/12/05 01:59:19;;;;;;;107.13;35.78;;;;;;;;;;5010323;28;20025;-64
2022/12/05 02:01:44;;;;;;;122.85;38.25;;;;;;;;;;5010520;28;20104;-66
2022/12/05 02:04:09;;;;;;;114.30;37.45;;;;;;;;;;5010400;28;20120;-67
2022/12/05 02:06:35;;;;;;;108.18;34.28;;;;;;;;;;5009920;28;20025;-67
2022/12/05 02:09:00;;;;;;;132.82;38.83;;;;;;;;;;5020384;28;20067;-66
2022/12/05 02:11:26;;;;;;;104.03;36.25;;;;;;;;;;5010686;28;20046;-66
2022/12/05 02:13:57;;;;;;;103.75;35.40;;;;;;;;;;5010246;28;20021;-67
2022/12/05 02:16:41;;;;;;;107.97;38.20;;;;;;;;;;5010716;28;20705;-67
2022/12/05 02:19:12;;;;;;;115.40;38.60;;;;;;;;;;5010975;28;20168;-68
2022/12/05 02:21:56;;;;;;;101.68;35.80;;;;;;;;;;5010148;28;20021;-67
2022/12/05 02:24:39;;;;;;;90.43;34.28;;;;;;;;;;5010332;28;20572;-69
2022/12/05 02:27:23;;;;;;;102.40;35.38;;;;;;;;;;5010651;28;20527;-65
2022/12/05 02:29:54;;;;;;;98.35;37.40;;;;;;;;;;5007440;28;20079;-67
2022/12/05 02:32:48;;;;;;;95.10;33.05;;;;;;;;;;5010495;28;20101;-67
2022/12/05 02:35:22;;;;;;;104.32;36.42;;;;;;;;;;4999913;28;20648;-65
2022/12/05 02:37:50;;;;;;;97.95;36.67;;;;;;;;;;5009704;28;20022;-66
2022/12/05 02:40:21;;;;;;;92.90;35.17;;;;;;;;;;5014500;28;20403;-67
2022/12/05 02:42:46;;;;;;;85.57;32.60;;;;;;;;;;5012765;28;20516;-68
2022/12/05 02:45:13;;;;;;;114.13;35.80;;;;;;;;;;5013376;28;20079;-68
2022/12/05 02:47:42;;;;;;;94.55;35.17;;;;;;;;;;5021587;28;20581;-68
2022/12/05 02:50:09;;;;;;;109.55;38.85;;;;;;;;;;5013851;28;20060;-67
2022/12/05 02:52:35;;;;;;;106.25;36.63;;;;;;;;;;5013781;28;20036;-66
2022/12/05 02:55:01;;;;;;;103.90;40.78;;;;;;;;;;5013188;28;20018;-67
2022/12/05 02:57:26;;;;;;;99.50;37.20;;;;;;;;;;5020982;28;20025;-70
2022/12/05 02:59:52;;;;;;;115.28;41.83;;;;;;;;;;5014192;28;20088;-67
2022/12/05 03:02:25;;;;;;;101.95;37.85;;;;;;;;;;5013660;28;20472;-69
2022/12/05 03:04:51;;;;;;;94.38;37.17;;;;;;;;;;5013401;28;20045;-67
2022/12/05 03:07:18;;;;;;;90.05;33.95;;;;;;;;;;5016052;28;20025;-64
2022/12/05 03:09:50;;;;;;;97.80;35.38;;;;;;;;;;5013659;28;20058;-69
2022/12/05 03:12:17;;;;;;;91.53;35.33;;;;;;;;;;5014125;28;20028;-67
2022/12/05 03:14:48;;;;;;;88.65;33.95;;;;;;;;;;5014089;28;20080;-68
2022/12/05 03:17:17;;;;;;;91.63;35.05;;;;;;;;;;5013649;28;20014;-67
2022/12/05 03:19:51;;;;;;;98.28;36.22;;;;;;;;;;5013556;28;20034;-67
2022/12/05 03:22:43;;;;;;;94.70;32.92;;;;;;;;;;5011944;28;20026;-65
2022/12/05 03:25:09;;;;;;;83.05;32.38;;;;;;;;;;5011755;28;20030;-67
2022/12/05 03:27:48;;;;;;;80.80;31.92;;;;;;;;;;5012490;28;20392;-66
2022/12/05 03:30:15;;;;;;;85.15;31.77;;;;;;;;;;5008814;28;20358;-64
2022/12/05 03:32:40;;;;;;;86.82;32.50;;;;;;;;;;5010124;28;20033;-66
2022/12/05 03:35:09;;;;;;;86.32;31.52;;;;;;;;;;5012430;28;20022;-66
2022/12/05 03:37:45;;;;;;;87.75;31.98;;;;;;;;;;5013051;28;20013;-66
2022/12/05 03:40:18;;;;;;;86.43;30.67;;;;;;;;;;5013026;28;20065;-68
2022/12/05 03:42:48;;;;;;;73.13;29.77;;;;;;;;;;5012822;28;20435;-64
2022/12/05 03:45:19;;;;;;;84.78;30.38;;;;;;;;;;5012475;28;20032;-68
2022/12/05 03:47:51;;;;;;;81.72;31.23;;;;;;;;;;5013000;28;20014;-65
2022/12/05 03:50:24;;;;;;;78.82;31.30;;;;;;;;;;5011532;28;20022;-65
2022/12/05 03:53:10;;;;;;;71.22;29.98;;;;;;;;;;5012410;28;20133;-65
2022/12/05 03:55:38;;;;;;;84.90;30.27;;;;;;;;;;5009709;28;20028;-69
2022/12/05 03:58:09;;;;;;;74.88;29.38;;;;;;;;;;5020650;28;20022;-66
2022/12/05 04:00:37;;;;;;;75.82;30.23;;;;;;;;;;5019795;28;20022;-67
2022/12/05 04:03:08;;;;;;;77.80;30.75;;;;;;;;;;5012820;28;20124;-67
2022/12/05 04:05:47;;;;;;;86.32;32.53;;;;;;;;;;5009929;28;20033;-67
2022/12/05 04:08:16;;;;;;;74.65;29.52;;;;;;;;;;5016375;28;20030;-68
2022/12/05 04:10:49;;;;;;;77.20;30.27;;;;;;;;;;5017533;28;20212;-69
2022/12/05 04:13:21;;;;;;;77.50;30.20;;;;;;;;;;5012669;28;20025;-66
2022/12/05 04:18:41;;;;;;;74.55;29.55;;;;;;;;;;5012246;28;20432;-67
2022/12/05 04:25:31;;;;;;;86.07;29.83;;;;;;;;;;5004574;28;20032;-69
2022/12/05 04:26:39;;;;;;;77.32;28.50;;;;;;;;;;5011508;28;20084;-67
2022/12/05 04:29:07;;;;;;;72.43;30.05;;;;;;;;;;5009857;28;20028;-65
2022/12/05 04:31:38;;;;;;;70.07;29.83;;;;;;;;;;5007977;28;20022;-68
2022/12/05 04:34:05;;;;;;;72.15;28.77;;;;;;;;;;5012121;28;20026;-68
2022/12/05 04:36:37;;;;;;;83.80;29.27;;;;;;;;;;5001919;28;20017;-69
2022/12/05 04:39:08;;;;;;;73.78;30.42;;;;;;;;;;5012293;28;20026;-67
2022/12/05 04:41:54;;;;;;;67.47;28.90;;;;;;;;;;5012686;28;20437;-68
2022/12/05 04:44:22;;;;;;;78.20;30.75;;;;;;;;;;5009646;28;20056;-66
2022/12/05 04:46:48;;;;;;;68.95;28.00;;;;;;;;;;5019684;28;20024;-68
2022/12/05 04:49:16;;;;;;;82.72;29.33;;;;;;;;;;5012273;28;20397;-67
2022/12/05 04:51:41;;;;;;;75.78;30.50;;;;;;;;;;5011646;28;20021;-66
2022/12/05 04:54:30;;;;;;;78.60;30.05;;;;;;;;;;5011739;28;20021;-67
2022/12/05 04:56:59;;;;;;;86.95;30.98;;;;;;;;;;5019139;28;20095;-65
2022/12/05 04:59:25;;;;;;;82.80;29.85;;;;;;;;;;5017316;28;20141;-68
2022/12/05 05:01:52;;;;;;;84.53;31.30;;;;;;;;;;5010348;28;20571;-68
2022/12/05 05:04:22;;;;;;;89.90;31.55;;;;;;;;;;5012312;28;20510;-65
2022/12/05 05:06:47;;;;;;;86.70;31.35;;;;;;;;;;5011487;28;20044;-66
2022/12/05 05:09:13;;;;;;;82.78;31.67;;;;;;;;;;5013272;28;20365;-67
2022/12/05 05:11:38;;;;;;;86.82;31.65;;;;;;;;;;5012093;28;20109;-66
2022/12/05 05:14:03;;;;;;;85.20;32.53;;;;;;;;;;5011472;28;20026;-67
2022/12/05 05:16:30;;;;;;;90.68;30.73;;;;;;;;;;5011114;28;20088;-66
2022/12/05 05:18:56;;;;;;;80.18;32.65;;;;;;;;;;5011166;28;20053;-64
2022/12/05 05:21:21;;;;;;;90.10;32.70;;;;;;;;;;5009938;28;20658;-66
2022/12/05 05:23:46;;;;;;;98.43;32.00;;;;;;;;;;5010535;28;20025;-64
2022/12/05 05:26:12;;;;;;;85.47;31.25;;;;;;;;;;5010410;28;20647;-65
2022/12/05 05:28:37;;;;;;;81.63;30.65;;;;;;;;;;5008419;28;20120;-66
2022/12/05 05:31:03;;;;;;;77.88;28.55;;;;;;;;;;5007852;28;20037;-66
2022/12/05 05:33:28;;;;;;;82.82;30.80;;;;;;;;;;5009501;28;20088;-66
2022/12/05 05:35:53;;;;;;;76.05;31.45;;;;;;;;;;5010637;28;20468;-66
2022/12/05 05:38:19;;;;;;;78.43;29.92;;;;;;;;;;5010278;28;20480;-66
2022/12/05 05:40:44;;;;;;;75.30;30.58;;;;;;;;;;5010146;28;20044;-67
2022/12/05 05:43:09;;;;;;;74.65;30.27;;;;;;;;;;5010587;28;20439;-70
2022/12/05 05:45:35;;;;;;;72.63;29.48;;;;;;;;;;5010097;28;20490;-64
2022/12/05 05:48:00;;;;;;;76.38;30.88;;;;;;;;;;5010118;28;20484;-69
2022/12/05 05:50:25;;;;;;;72.60;28.08;;;;;;;;;;5008317;28;20021;-68
2022/12/05 05:52:51;;;;;;;76.90;29.25;;;;;;;;;;5008893;28;20025;-67
2022/12/05 05:55:16;;;;;;;68.50;27.95;;;;;;;;;;5009936;28;20030;-64
2022/12/05 05:57:42;;;;;;;77.15;28.80;;;;;;;;;;5011574;28;20041;-66
2022/12/05 06:00:07;;;;;;;75.88;28.40;;;;;;;;;;5025914;28;20487;-68
2022/12/05 06:02:33;;;;;;;75.97;29.15;;;;;;;;;;5010513;28;20021;-67
2022/12/05 06:04:58;;;;;;;62.75;26.27;;;;;;;;;;5009270;28;20044;-67
2022/12/05 06:07:23;;;;;;;67.28;30.05;;;;;;;;;;5013557;28;20049;-66
2022/12/05 06:09:49;;;;;;;67.93;27.90;;;;;;;;;;5013932;28;20022;-67
2022/12/05 06:12:14;;;;;;;65.85;27.38;;;;;;;;;;5010163;28;20037;-67
2022/12/05 06:14:39;;;;;;;74.20;30.10;;;;;;;;;;5009049;28;20033;-66
2022/12/05 06:17:04;;;;;;;70.85;27.38;;;;;;;;;;5010431;28;20041;-66
2022/12/05 06:19:30;;;;;;;66.07;26.40;;;;;;;;;;5011009;28;20037;-69
2022/12/05 06:21:55;;;;;;;66.25;27.08;;;;;;;;;;5010555;28;20088;-68
2022/12/05 06:24:20;;;;;;;66.85;25.83;;;;;;;;;;5009532;28;20399;-66
2022/12/05 06:26:45;;;;;;;65.35;27.33;;;;;;;;;;5009178;28;20507;-67
2022/12/05 06:29:11;;;;;;;64.53;25.98;;;;;;;;;;5008920;28;20076;-67
2022/12/05 06:31:36;;;;;;;70.47;26.88;;;;;;;;;;5007086;28;20026;-68
2022/12/05 06:34:02;;;;;;;57.55;25.05;;;;;;;;;;5009479;28;20113;-68
2022/12/05 06:36:28;;;;;;;59.17;25.15;;;;;;;;;;5009753;28;20022;-66
2022/12/05 06:38:57;;;;;;;56.15;23.30;;;;;;;;;;5007261;28;20044;-68
2022/12/05 06:41:26;;;;;;;59.03;25.80;;;;;;;;;;5011361;28;20731;-67
2022/12/05 06:43:52;;;;;;;;;;;;;;;;;;5010759;28;20021;-65
2022/12/05 06:46:17;;;;;;;66.93;25.15;;;;;;;;;;5009985;28;19917;-68
2022/12/05 06:48:43;;;;;;;66.22;26.40;;;;;;;;;;5011512;28;20026;-70
2022/12/05 06:51:09;;;;;;;54.50;23.73;;;;;;;;;;5007191;28;20099;-69
2022/12/05 06:53:34;;;;;;;64.55;24.77;;;;;;;;;;5012111;28;20030;-69
2022/12/05 06:56:02;;;;;;;55.50;23.13;;;;;;;;;;5013533;28;20031;-68
2022/12/05 06:58:28;;;;;;;64.50;24.88;;;;;;;;;;5006756;28;20105;-67
2022/12/05 07:03:37;;;;;;;60.78;24.80;;;;;;;;;;5009224;28;20028;-67
2022/12/05 07:06:03;;;;;;;60.83;25.73;;;;;;;;;;5012876;28;20037;-67
2022/12/05 07:08:29;;;;;;;61.78;24.75;;;;;;;;;;5010486;28;20018;-68
2022/12/05 07:10:54;;;;;;;69.65;27.30;;;;;;;;;;5008176;28;20033;-67
2022/12/05 07:13:20;;;;;;;57.35;24.80;;;;;;;;;;5010902;28;20036;-68
2022/12/05 07:15:46;;;;;;;60.17;26.10;;;;;;;;;;5015838;28;20030;-70
2022/12/05 07:18:12;;;;;;;63.83;23.13;;;;;;;;;;5011444;28;20028;-68
2022/12/05 07:20:37;;;;;;;57.15;24.65;;;;;;;;;;5011798;28;20703;-68
2022/12/05 07:23:02;;;;;;;67.50;26.92;;;;;;;;;;5014048;28;20033;-66
2022/12/05 07:25:27;;;;;;;68.07;26.48;;;;;;;;;;5008555;28;20021;-69
2022/12/05 07:27:52;;;;;;;63.03;27.45;;;;;;;;;;5015276;28;20121;-68
2022/12/05 07:30:18;;;;;;;58.95;22.92;;;;;;;;;;5016885;28;20036;-66
2022/12/05 07:32:43;;;;;;;63.88;23.77;;;;;;;;;;5011781;28;20114;-68
2022/12/05 07:35:08;;;;;;;61.60;22.52;;;;;;;;;;5013886;28;20499;-66
2022/12/05 07:37:33;;;;;;;59.83;24.15;;;;;;;;;;5011530;28;20022;-71
2022/12/05 07:39:59;;;;;;;65.95;23.92;;;;;;;;;;5011228;28;20379;-67
2022/12/05 07:42:24;;;;;;;61.13;22.33;;;;;;;;;;5012549;28;20041;-67
2022/12/05 07:44:49;;;;;;;66.55;26.88;;;;;;;;;;5013253;28;20026;-67
2022/12/05 07:47:14;;;;;;;58.85;24.08;;;;;;;;;;5012417;28;20032;-68
2022/12/05 07:49:40;;;;;;;72.72;26.27;;;;;;;;;;5017798;28;20032;-68
2022/12/05 07:52:05;;;;;;;57.67;24.00;;;;;;;;;;5014792;28;20041;-67
2022/12/05 07:54:30;;;;;;;55.22;22.33;;;;;;;;;;5008327;28;20074;-69
2022/12/05 07:56:55;;;;;;;47.58;20.33;;;;;;;;;;5008928;28;20020;-69
2022/12/05 07:59:21;;;;;;;53.50;22.08;;;;;;;;;;5012366;28;20083;-66
2022/12/05 08:01:46;;;;;;;46.25;20.35;;;;;;;;;;5014094;28;20104;-68
2022/12/05 08:04:11;;;;;;;47.72;19.50;;;;;;;;;;5020990;28;20025;-65
2022/12/05 08:06:36;;;;;;;49.38;19.85;;;;;;;;;;5015595;28;20164;-67
2022/12/05 08:09:02;;;;;;;56.13;20.73;;;;;;;;;;5016333;28;20094;-66
2022/12/05 08:11:29;;;;;;;51.15;19.52;;;;;;;;;;5012635;28;20026;-68
2022/12/05 08:13:55;;;;;;;43.53;18.48;;;;;;;;;;5013555;28;20030;-67
2022/12/05 08:16:22;;;;;;;43.97;18.63;;;;;;;;;;5012881;28;20097;-65
2022/12/05 08:18:47;;;;;;;45.58;19.05;;;;;;;;;;5012252;28;20022;-68
2022/12/05 08:21:14;;;;;;;40.42;17.70;;;;;;;;;;5011759;28;20076;-66
2022/12/05 08:23:39;;;;;;;52.83;19.90;;;;;;;;;;5012471;28;20021;-66
2022/12/05 08:26:15;;;;;;;40.65;18.25;;;;;;;;;;5011953;28;20021;-67
2022/12/05 08:28:41;;;;;;;45.60;18.15;;;;;;;;;;5010664;28;20476;-67
2022/12/05 08:31:07;;;;;;;45.05;17.58;;;;;;;;;;5014836;28;20035;-69
2022/12/05 08:33:33;;;;;;;46.45;18.55;;;;;;;;;;5016037;28;20030;-68
2022/12/05 08:36:02;;;;;;;41.17;16.42;;;;;;;;;;5009852;28;20032;-68
2022/12/05 08:38:27;;;;;;;44.10;17.13;;;;;;;;;;5011101;28;20109;-69
2022/12/05 08:40:53;;;;;;;40.97;16.92;;;;;;;;;;5011462;28;20672;-68
2022/12/05 08:43:18;;;;;;;38.67;15.75;;;;;;;;;;5005310;28;20041;-69
2022/12/05 08:45:50;;;;;;;34.08;15.30;;;;;;;;;;5010508;28;20030;-68
2022/12/05 08:48:15;;;;;;;40.75;16.95;;;;;;;;;;5008396;28;20056;-68
2022/12/05 08:50:41;;;;;;;38.40;17.58;;;;;;;;;;5021609;28;20081;-67
2022/12/05 08:53:06;;;;;;;40.00;15.52;;;;;;;;;;5010812;28;20029;-68
2022/12/05 08:55:33;;;;;;;35.88;15.52;;;;;;;;;;5009688;28;20041;-66
2022/12/05 08:57:58;;;;;;;36.45;16.45;;;;;;;;;;5009305;28;20026;-67
2022/12/05 09:00:23;;;;;;;34.85;15.88;;;;;;;;;;5008792;28;20112;-66
2022/12/05 09:02:49;;;;;;;40.15;16.08;;;;;;;;;;5009995;28;20045;-67
2022/12/05 09:05:15;;;;;;;35.88;14.43;;;;;;;;;;5010473;28;20040;-67
2022/12/05 09:07:40;;;;;;;37.78;15.25;;;;;;;;;;5021557;28;20109;-67
2022/12/05 09:10:06;;;;;;;40.25;16.00;;;;;;;;;;5010227;28;20033;-72
2022/12/05 09:12:34;;;;;;;36.75;17.10;;;;;;;;;;5010985;28;20025;-67
2022/12/05 09:14:59;;;;;;;35.85;14.43;;;;;;;;;;5013290;28;20034;-70
2022/12/05 09:17:24;;;;;;;35.97;14.50;;;;;;;;;;5017505;28;20395;-67
2022/12/05 09:19:50;;;;;;;36.53;15.32;;;;;;;;;;5015016;28;20483;-67
2022/12/05 09:22:16;;;;;;;40.75;15.70;;;;;;;;;;5013766;28;20029;-68
2022/12/05 09:24:41;;;;;;;33.65;14.38;;;;;;;;;;5014206;28;20030;-68
2022/12/05 09:27:06;;;;;;;31.40;14.38;;;;;;;;;;5005106;28;20022;-68
2022/12/05 09:29:32;;;;;;;34.38;14.15;;;;;;;;;;5018229;28;20023;-69
2022/12/05 09:31:57;;;;;;;31.92;13.88;;;;;;;;;;5012088;28;20014;-68
2022/12/05 09:34:24;;;;;;;31.35;13.18;;;;;;;;;;5015836;28;20033;-66
2022/12/05 09:36:51;;;;;;;33.30;13.05;;;;;;;;;;5014021;28;20113;-68
2022/12/05 09:39:16;;;;;;;30.73;13.85;;;;;;;;;;5013858;28;20277;-68
2022/12/05 09:42:03;;;;;;;32.85;13.70;;;;;;;;;;5019989;28;20033;-67
2022/12/05 09:44:43;;;;;;;27.98;13.27;;;;;;;;;;5010233;28;20097;-68
2022/12/05 09:47:08;;;;;;;33.33;14.55;;;;;;;;;;5013176;28;20709;-67
2022/12/05 09:49:37;;;;;;;35.67;13.57;;;;;;;;;;5013297;28;20117;-67
2022/12/05 09:52:03;;;;;;;29.80;12.43;;;;;;;;;;5012480;28;20076;-68
2022/12/05 09:54:29;;;;;;;35.47;14.02;;;;;;;;;;5017779;28;20480;-69
2022/12/05 09:56:54;;;;;;;33.92;13.80;;;;;;;;;;5010065;28;20778;-70
2022/12/05 09:59:20;;;;;;;27.85;12.82;;;;;;;;;;5007481;28;20033;-67
2022/12/05 10:01:48;;;;;;;31.80;12.90;;;;;;;;;;5024163;28;20017;-69
2022/12/05 10:04:33;;;;;;;31.35;13.68;;;;;;;;;;5014099;28;20080;-69
2022/12/05 10:07:17;;;;;;;38.25;16.75;;;;;;;;;;5006483;28;20030;-68
2022/12/05 10:10:01;;;;;;;36.50;12.57;;;;;;;;;;5007468;28;20089;-67
2022/12/05 10:12:40;;;;;;;28.45;11.90;;;;;;;;;;5010376;28;20037;-68
2022/12/05 10:15:11;;;;;;;33.50;14.43;;;;;;;;;;5009526;28;20488;-66
2022/12/05 10:17:38;;;;;;;27.90;12.15;;;;;;;;;;5010124;28;20040;-67
2022/12/05 10:20:15;;;;;;;26.63;12.40;;;;;;;;;;5009859;28;20085;-68
2022/12/05 10:22:48;;;;;;;29.90;12.77;;;;;;;;;;5010463;28;20498;-68
2022/12/05 10:25:17;;;;;;;29.02;12.55;;;;;;;;;;5008141;28;20017;-68
2022/12/05 10:27:55;;;;;;;25.95;11.43;;;;;;;;;;5009409;28;20459;-67
2022/12/05 10:30:22;;;;;;;26.23;11.27;;;;;;;;;;5008384;28;20030;-67
2022/12/05 10:32:56;;;;;;;28.10;11.25;;;;;;;;;;5009965;28;20026;-70
2022/12/05 10:35:21;;;;;;;26.63;12.18;;;;;;;;;;5012693;28;20068;-68
2022/12/05 10:37:48;;;;;;;28.48;11.15;;;;;;;;;;5013799;28;20619;-68
2022/12/05 10:40:14;;;;;;;26.30;12.13;;;;;;;;;;5011144;28;20657;-68
2022/12/05 10:42:39;;;;;;;29.40;12.23;;;;;;;;;;5008826;28;20041;-68
2022/12/05 10:45:06;;;;;;;25.80;11.90;;;;;;;;;;5008521;28;20021;-67
2022/12/05 10:47:32;;;;;;;30.80;12.85;;;;;;;;;;5008444;28;20527;-67
2022/12/05 10:49:58;;;;;;;28.77;12.63;;;;;;;;;;5014452;28;20119;-68
2022/12/05 10:52:24;;;;;;;28.52;12.50;;;;;;;;;;5010645;28;20052;-68
2022/12/05 10:55:01;;;;;;;28.95;13.20;;;;;;;;;;5011489;28;20488;-68
2022/12/05 10:57:28;;;;;;;29.48;12.63;;;;;;;;;;5010388;28;20056;-69
2022/12/05 10:59:55;;;;;;;22.15;11.23;;;;;;;;;;5011778;28;20046;-67
2022/12/05 11:02:25;;;;;;;33.45;12.77;;;;;;;;;;5012984;28;20018;-70
2022/12/05 11:04:50;;;;;;;30.40;12.50;;;;;;;;;;5015800;28;20116;-70
2022/12/05 11:07:42;;;;;;;29.40;12.43;;;;;;;;;;5014953;28;20104;-68
2022/12/05 11:10:45;;;;;;;27.77;12.27;;;;;;;;;;5015353;28;20121;-69
2022/12/05 11:13:22;;;;;;;28.92;11.82;;;;;;;;;;4975234;28;20455;-68
2022/12/05 11:15:47;;;;;;;30.05;12.35;;;;;;;;;;4976071;28;20598;-68
2022/12/05 11:18:24;;;;;;;26.67;11.50;;;;;;;;;;4973794;28;20038;-68
2022/12/05 11:20:50;;;;;;;24.42;10.93;;;;;;;;;;4974741;28;20037;-68
2022/12/05 11:23:35;;;;;;;28.92;12.30;;;;;;;;;;4976931;28;20023;-69
2022/12/05 11:26:00;;;;;;;23.17;10.63;;;;;;;;;;4969812;28;20082;-69
2022/12/05 11:28:33;;;;;;;25.35;11.30;;;;;;;;;;4962221;28;20738;-67
2022/12/05 11:31:01;;;;;;;27.52;11.88;;;;;;;;;;4956051;28;20035;-67
2022/12/05 11:33:28;;;;;;;24.03;11.23;;;;;;;;;;4973674;28;20159;-69
2022/12/05 11:35:56;;;;;;;23.63;10.48;;;;;;;;;;4957142;28;20552;-69
2022/12/05 11:38:23;;;;;;;21.93;11.07;;;;;;;;;;4974415;28;20817;-71
2022/12/05 11:40:53;;;;;;;18.60;10.13;;;;;;;;;;4973552;28;20260;-67
2022/12/05 11:43:22;;;;;;;20.58;10.93;;;;;;;;;;4983140;28;20044;-66
2022/12/05 11:45:50;;;;;;;22.85;10.82;;;;;;;;;;5014819;28;20884;-69
2022/12/05 11:48:15;;;;;;;21.45;10.10;;;;;;;;;;5020146;28;20503;-68
2022/12/05 11:50:40;;;;;;;21.60;11.13;;;;;;;;;;5013393;28;20026;-68
2022/12/05 11:53:09;;;;;;;19.92;10.45;;;;;;;;;;5015976;28;20021;-68
2022/12/05 11:55:49;;;;;;;21.00;9.43;;;;;;;;;;5016844;28;20030;-70
2022/12/05 11:58:15;;;;;;;21.27;10.25;;;;;;;;;;5013004;28;20025;-67
2022/12/05 12:00:43;;;;;;;22.10;11.30;;;;;;;;;;5016388;28;20024;-68
2022/12/05 12:03:14;;;;;;;21.37;10.73;;;;;;;;;;5007980;28;20089;-70
2022/12/05 12:05:39;;;;;;;26.40;12.32;;;;;;;;;;5011015;28;20120;-68
2022/12/05 12:08:07;;;;;;;22.50;10.77;;;;;;;;;;5011992;28;20691;-70
2022/12/05 12:10:45;;;;;;;21.00;10.80;;;;;;;;;;5014043;28;20091;-69
2022/12/05 12:13:19;;;;;;;20.65;10.32;;;;;;;;;;5012213;28;20018;-68
2022/12/05 12:15:47;;;;;;;19.55;10.68;;;;;;;;;;5011014;28;20033;-67
2022/12/05 12:18:15;;;;;;;21.02;10.10;;;;;;;;;;5015303;28;20104;-68
2022/12/05 12:20:45;;;;;;;25.00;12.27;;;;;;;;;;5010246;28;20503;-68
2022/12/05 12:23:20;;;;;;;26.67;12.05;;;;;;;;;;5013501;28;20128;-69
2022/12/05 12:25:56;;;;;;;24.50;12.23;;;;;;;;;;5014769;28;20022;-68
2022/12/05 12:28:24;;;;;;;23.40;12.07;;;;;;;;;;5013272;28;20026;-70
2022/12/05 12:31:08;;;;;;;27.63;12.75;;;;;;;;;;5012065;28;20021;-68
2022/12/05 12:33:33;;;;;;;29.65;10.25;;;;;;;;;;5009736;28;20035;-67
2022/12/05 12:36:05;;;;;;;27.25;12.15;;;;;;;;;;5012727;28;20017;-68
2022/12/05 12:38:42;;;;;;;25.88;11.50;;;;;;;;;;5015049;28;20153;-69
2022/12/05 12:41:17;;;;;;;22.75;10.27;;;;;;;;;;5013152;28;20379;-68
2022/12/05 12:43:43;;;;;;;24.83;11.93;;;;;;;;;;5016701;28;20081;-67
2022/12/05 12:46:21;;;;;;;24.30;11.45;;;;;;;;;;5010987;28;20030;-68
2022/12/05 12:49:05;;;;;;;20.63;11.57;;;;;;;;;;5017266;28;20025;-68
2022/12/05 12:51:32;;;;;;;24.58;11.68;;;;;;;;;;5016695;28;20095;-69
2022/12/05 12:53:57;;;;;;;24.88;11.60;;;;;;;;;;5012475;28;20091;-66
2022/12/05 12:56:37;;;;;;;19.98;11.25;;;;;;;;;;5013370;28;20029;-69
2022/12/05 12:59:12;;;;;;;25.45;10.90;;;;;;;;;;5013950;28;20092;-69
2022/12/05 13:01:43;;;;;;;23.55;12.15;;;;;;;;;;5007323;28;20030;-70
2022/12/05 13:04:17;;;;;;;24.70;12.00;;;;;;;;;;5006845;28;20112;-68
2022/12/05 13:06:45;;;;;;;24.15;12.10;;;;;;;;;;5008795;28;20392;-68
2022/12/05 13:09:32;;;;;;;21.17;10.95;;;;;;;;;;5011141;28;20416;-69
2022/12/05 13:11:59;;;;;;;21.02;11.35;;;;;;;;;;5013747;28;20026;-67
2022/12/05 13:14:26;;;;;;;23.45;11.75;;;;;;;;;;5011322;28;20030;-66
2022/12/05 13:16:53;;;;;;;22.98;12.25;;;;;;;;;;5010370;28;20036;-68
2022/12/05 13:19:29;;;;;;;24.95;12.50;;;;;;;;;;5013166;28;20022;-67
2022/12/05 13:21:56;;;;;;;23.63;11.90;;;;;;;;;;5009471;28;20112;-68
2022/12/05 13:24:23;;;;;;;23.80;11.45;;;;;;;;;;5011600;28;20022;-68
2022/12/05 13:26:49;;;;;;;23.40;12.10;;;;;;;;;;5012870;28;20137;-65
2022/12/05 13:29:22;;;;;;;23.67;11.38;;;;;;;;;;5011044;28;20104;-68
2022/12/05 13:31:48;;;;;;;18.70;10.70;;;;;;;;;;5010695;28;20034;-66
2022/12/05 13:34:25;;;;;;;24.40;11.50;;;;;;;;;;5011643;28;20013;-67
2022/12/05 13:42:23;;;;;;;25.05;12.00;;;;;;;;;;5012023;28;20032;-69
2022/12/05 13:44:53;;;;;;;26.45;12.93;;;;;;;;;;5017409;28;20038;-67
2022/12/05 13:47:27;;;;;;;23.42;11.38;;;;;;;;;;5015168;28;20037;-67
2022/12/05 13:50:11;;;;;;;25.83;12.52;;;;;;;;;;5013885;28;20029;-69
2022/12/05 13:52:57;;;;;;;34.53;15.00;;;;;;;;;;5010393;28;20068;-70
2022/12/05 13:55:28;;;;;;;24.75;12.93;;;;;;;;;;5010040;28;20033;-66
2022/12/05 13:57:54;;;;;;;28.23;12.88;;;;;;;;;;5014042;28;20367;-68
2022/12/05 14:00:40;;;;;;;24.30;13.25;;;;;;;;;;5013660;28;20030;-68
2022/12/05 14:03:14;;;;;;;27.17;14.43;;;;;;;;;;5014638;28;20103;-70
2022/12/05 14:05:46;;;;;;;27.80;14.45;;;;;;;;;;5011498;28;20029;-68
2022/12/05 14:08:30;;;;;;;28.25;16.20;;;;;;;;;;5012926;28;20035;-69
2022/12/05 14:10:55;;;;;;;24.30;13.02;;;;;;;;;;5011475;28;20034;-66
2022/12/05 14:13:20;;;;;;;29.05;13.88;;;;;;;;;;5015717;28;20030;-67
2022/12/05 14:15:47;;;;;;;27.48;13.20;;;;;;;;;;5012448;28;20622;-70
2022/12/05 14:18:19;;;;;;;25.20;12.25;;;;;;;;;;5011449;28;20064;-71
2022/12/05 14:21:00;;;;;;;23.67;11.52;;;;;;;;;;5010605;28;20037;-71
2022/12/05 14:23:44;;;;;;;27.42;12.25;;;;;;;;;;5013501;28;20029;-68
2022/12/05 14:26:31;;;;;;;21.58;11.40;;;;;;;;;;5013363;28;20028;-68
2022/12/05 14:29:11;;;;;;;23.27;12.55;;;;;;;;;;5013353;28;20121;-69
2022/12/05 14:31:41;;;;;;;22.85;11.82;;;;;;;;;;5006604;28;20017;-68
2022/12/05 14:34:36;;;;;;;25.85;12.77;;;;;;;;;;5015450;28;20022;-75
2022/12/05 14:37:03;;;;;;;24.23;12.23;;;;;;;;;;5013155;28;20036;-71
2022/12/05 14:39:31;;;;;;;26.25;12.13;;;;;;;;;;5013210;28;20025;-71
2022/12/05 14:41:58;;;;;;;21.55;11.60;;;;;;;;;;5013593;28;20029;-71